메인 페이지
METAR-TAF:

METAR-TAF

공항 :

Goodland Municipal Airport (Renner Field)

Goodland, 캔자스, 미국

위도: 39-22-03N, 경도: 101-41-35W, 고도: 1114m

현재 날씨관측

예보는 22분 전, 22:53시(UTC)에 발표되었습니다.
남서5kt
온도 11°C
습도 50%
기압 1011 hPa
시정: 16.1km
맑음

METAR: KGLD 162253Z AUTO 23005KT 10SM CLR 11/01 A2986 RMK AO2 SLP111 T01110006

시각: 16:15 (23:15 UTC)

예보

예보는 5 시간 38분 전, 17:37시(UTC)에 발표되었습니다.
예보 대상 시간: 16일 18시부터 17일 18시까지 (UTC)
남남서15kt, 순간 최대 풍속 25kt
시정: 10km
맑음
일시적
16일 18시부터 16일 19시까지 (UTC)
남남서24kt, 순간 최대 풍속 34kt
16일 2200시부터 (UTC)
서남서10kt
시정: 10km
고도 20000ft 상공 구름 조금
17일 0000시부터 (UTC)
여러 방향의 바람 6kt
시정: 10km
고도 20000ft 상공 구름 보통
17일 0500시부터 (UTC)
15kt
시정: 10km
고도 25000ft 상공 구름 보통
17일 1100시부터 (UTC)
북북동20kt, 순간 최대 풍속 30kt
시정: 10km
고도 2500ft 상공 흐림

TAF: KGLD 161737Z 1618/1718 21015G25KT P6SM SKC TEMPO 1618/1619 21024G34KT FM162200 24010KT P6SM FEW200 FM170000 VRB06KT P6SM SCT200 FM170500 01015KT P6SM SCT250 FM171100 02020G30KT P6SM OVC025

4,000개 이상의 공항 관측 자료 및 예보 (METAR 및 TAF 보고).

지도상에서 검색 가능한 기상관측소가 노란 점과 빨간 점으로 표시되어 있습니다.

기상관측소 명을 보려면 표시 위로 마우스를 이동하세요.

날씨 관측과 예보를 보려면 클릭하세요.

지도 변경 : 확대하려면 엑스 표시가 있는 녹색 버튼, 축소하려면 빼기 표시가 있는 녹색 버튼, 다음 페이지의 지도를 보려면 녹색 화살표를 클릭하세요.


METAR-TAF: